< < Back
Terminal Aerodrome Forecast


Current Version              Previous Versions:   1  2  3  4  5  6  7  8  9  

Terminal Aerodrome Forecast

192
FTUS42 KGSP 301720
TAFHKY
TAF
KHKY 301720Z 3018/3118 01005KT P6SM SKC
     FM310800 05003KT P6SM SCT045
     FM311700 22003KT P6SM BKN050=

Latest METAR

040
SAUS70 KWBC 311300 RRM
MTRHKY
METAR KHKY 311253Z 00000KT 10SM OVC017 06/04 A2997 RMK AO2 SLP140
T00610039


USA.gov is the U.S. government's official web portal to all federal, state and local government web resources and services.